Fairmont, WV (26554)

8:54 AM EST on February 13, 2016 (GMT -0500)
N8TJD's WX Station. Stony Rd/Pinchgut Hollow. | | Change Station
CLOSE
Current Station
Personal Weather Station
Location: Fairmont, WV
Elevation: 1283 ft
Nearby Weather Stations

Elev 1283 ft 39.46 °N, 80.12 °W | Updated 2 seconds ago

Overcast
Overcast
11.1 °F
Feels Like 11 °F
N
2.2
Wind Variable Wind from WSW
Gusts 2.7 mph

Today
High -- | Low -- °F
--% Chance of Precip.
Yesterday
High -- | Low -- °F
Precip. -- in
Pressure 30.32 in
Visibility 10.0 miles
Clouds Overcast 3300 ft
Windchill 11 °F
Dew Point -5 °F
Humidity 48%
Rainfall 0.00 in
Snow Depth Not available.
7:15 AM 5:54 PM
Waxing Crescent, 31% visible
SPECI KCKB 131343Z 30013KT 10SM OVC033 M13/M21 A3032 RMK AO2 UPB15E19B34E36SNB00E15B22E34 P0000 T11281206
Pressure 30.32 in
Visibility 10.0 miles
Clouds Overcast 3300 ft
Windchill 11 °F
Dew Point -5 °F
Humidity 48%
Rainfall 0.00 in
Snow Depth Not available.
7:15 AM 5:54 PM
Waxing Crescent, 31% visible
SPECI KCKB 131343Z 30013KT 10SM OVC033 M13/M21 A3032 RMK AO2 UPB15E19B34E36SNB00E15B22E34 P0000 T11281206

10-Day Weather Forecast

Almanac

Astronomy

Feb. 13, 2016 Rise Set
Actual Time
Civil Twilight
Nautical Twilight
Astronomical Twilight
Moon
Length of Visible Light
Length of Day
Tomorrow will be .
, % of the Moon is Illuminated

Today's Extremes

State Highs State Lows

Community

WunderPhotos

Upload Photos

1,892,547 photos uploaded!

WunderBlog® & News

Nearby

Air Quality

  Air Quality AQ Index Pollutant
Not available.

Snow Depth

Station Depth Elevation

Earthquake Activity

City Distance Mag. Time & Date
Minimum magnitude displayed is 2.5.

Coastal Water Temperatures

Place Temperature

Stations

Nearby Weather Stations

Station Location Temp. Windchill Dew Point Humidity Wind Precip. Elev Updated Type
                   

Watches & Warnings

Wind Chill Advisory
Issued: 4:56 AM EST Feb. 13, 2016 – National Weather Service

... Wind Chill Advisory remains in effect until 9 am EST Sunday...

* wind chill... as low as 15 below due to temperatures 4 below to
12 above zero... and winds west 10 to 20 mph with gusts up to
25 mph.

* Impacts... frost bite and hypothermia are possible if
precautions are not taken.